Time;durP1;ratioP1;P1;durP2;ratioP2;P2;SDS_P1;SDS_P2;PMS_P1;PMS_P2;Temp;Humidity;BMP_temperature;BMP_pressure;BME280_temperature;BME280_humidity;BME280_pressure;Samples;Min_cycle;Max_cycle;Signal;HPM_P1;HPM_P2
2021/06/21 04:32:28;;;;;;;6.07;1.90;;;17.80;99.90;;;;;;5312595;22;20590;-78
2021/06/21 04:34:54;;;;;;;5.53;1.90;;;17.80;99.90;;;;;;5034068;28;20409;-79
2021/06/21 04:37:20;;;;;;;8.87;2.07;;;17.90;99.90;;;;;;5035914;28;20243;-79
2021/06/21 04:39:45;;;;;;;9.10;1.93;;;17.90;99.90;;;;;;5046675;28;20173;-79
2021/06/21 04:42:11;;;;;;;10.73;1.30;;;17.90;99.90;;;;;;5042239;28;20210;-79
2021/06/21 04:44:36;;;;;;;6.00;1.93;;;17.90;99.90;;;;;;5035218;28;20540;-79
2021/06/21 04:47:02;;;;;;;5.90;1.40;;;17.90;99.90;;;;;;5035251;28;20217;-79
2021/06/21 04:49:27;;;;;;;5.83;1.63;;;17.90;99.90;;;;;;5036060;28;20558;-79
2021/06/21 04:51:53;;;;;;;8.07;2.60;;;17.90;99.90;;;;;;5035227;28;20194;-79
2021/06/21 04:54:19;;;;;;;8.87;1.30;;;17.90;99.90;;;;;;5034949;28;20178;-79
2021/06/21 04:56:45;;;;;;;13.33;1.97;;;17.80;99.90;;;;;;5035901;28;20670;-79
2021/06/21 04:59:10;;;;;;;10.60;1.80;;;17.80;99.90;;;;;;5035001;28;20417;-76
2021/06/21 05:01:36;;;;;;;5.23;1.87;;;17.80;99.90;;;;;;5033259;28;20204;-76
2021/06/21 05:04:04;;;;;;;9.80;2.00;;;18.00;99.90;;;;;;5034237;28;20185;-76
2021/06/21 05:06:30;;;;;;;14.80;2.10;;;18.30;99.90;;;;;;5034252;28;20214;-75
2021/06/21 05:08:56;;;;;;;4.77;1.70;;;18.70;99.90;;;;;;5034180;28;20960;-71
2021/06/21 05:11:21;;;;;;;3.37;1.90;;;19.00;99.90;;;;;;5034272;28;20289;-73
2021/06/21 05:13:47;;;;;;;7.27;1.27;;;19.30;99.90;;;;;;5034491;28;20356;-73
2021/06/21 05:16:14;;;;;;;15.57;2.00;;;19.70;99.90;;;;;;5034285;28;20178;-73
2021/06/21 05:18:39;;;;;;;12.43;1.47;;;20.10;99.90;;;;;;5034672;28;20182;-73
2021/06/21 05:21:05;;;;;;;6.40;1.63;;;20.60;99.90;;;;;;5033579;28;20433;-75
2021/06/21 05:23:31;;;;;;;8.33;2.00;;;21.10;99.90;;;;;;5033511;28;20182;-73
2021/06/21 05:25:57;;;;;;;7.33;2.10;;;21.50;99.90;;;;;;5033759;28;20216;-74
2021/06/21 05:28:22;;;;;;;9.27;1.60;;;21.50;99.90;;;;;;5033483;28;20182;-74
2021/06/21 05:30:48;;;;;;;6.70;1.60;;;21.70;99.90;;;;;;5033236;28;20240;-74
2021/06/21 05:33:14;;;;;;;6.30;1.13;;;22.10;99.90;;;;;;5033394;28;20178;-74
2021/06/21 05:35:43;;;;;;;6.63;1.63;;;22.50;99.90;;;;;;5033295;28;20178;-73
2021/06/21 05:38:09;;;;;;;9.67;1.27;;;22.80;99.90;;;;;;5033477;28;20320;-74
2021/06/21 05:40:34;;;;;;;7.93;1.43;;;22.90;99.90;;;;;;5033083;28;20941;-71
2021/06/21 05:43:01;;;;;;;4.43;1.43;;;23.00;99.90;;;;;;5033338;28;20190;-74
2021/06/21 05:45:26;;;;;;;2.93;1.23;;;23.10;99.90;;;;;;5032979;28;20210;-74
2021/06/21 05:47:53;;;;;;;6.20;1.60;;;23.20;99.90;;;;;;5033457;28;20474;-74
2021/06/21 05:50:19;;;;;;;6.83;1.90;;;22.80;99.90;;;;;;5033071;28;20736;-74
2021/06/21 05:52:49;;;;;;;4.20;1.33;;;22.90;99.90;;;;;;5032928;28;20528;-74
2021/06/21 05:55:18;;;;;;;6.40;1.23;;;22.90;99.90;;;;;;5033130;28;20174;-74
2021/06/21 05:57:43;;;;;;;9.53;1.23;;;22.90;99.90;;;;;;5033050;28;20416;-75
2021/06/21 06:00:12;;;;;;;4.23;1.27;;;23.10;99.90;;;;;;5033131;28;20416;-75
2021/06/21 06:02:38;;;;;;;5.97;1.80;;;23.40;99.90;;;;;;5033103;28;20221;-77
2021/06/21 06:05:04;;;;;;;3.83;1.40;;;23.20;99.90;;;;;;5033194;28;20459;-77
2021/06/21 06:07:30;;;;;;;10.23;1.53;;;23.10;99.90;;;;;;5014947;28;20260;-77
2021/06/21 06:09:57;;;;;;;6.30;1.63;;;23.10;99.90;;;;;;5034350;28;20855;-78
2021/06/21 06:12:23;;;;;;;4.03;1.30;;;23.20;99.90;;;;;;5032831;28;20655;-76
2021/06/21 06:14:49;;;;;;;7.23;1.50;;;23.30;99.90;;;;;;5032487;28;20500;-78
2021/06/21 06:17:15;;;;;;;6.10;1.67;;;23.40;99.90;;;;;;5033205;28;20801;-79
2021/06/21 06:19:40;;;;;;;4.60;1.17;;;23.10;99.90;;;;;;5034408;28;20592;-79
2021/06/21 06:22:06;;;;;;;7.13;1.23;;;23.30;99.90;;;;;;5018742;28;20487;-79
2021/06/21 06:24:33;;;;;;;6.13;1.43;;;23.40;99.90;;;;;;5035417;28;20186;-79
2021/06/21 06:26:58;;;;;;;5.90;1.50;;;23.90;99.90;;;;;;5035415;28;20468;-78
2021/06/21 06:29:24;;;;;;;5.90;1.40;;;24.30;99.90;;;;;;5035570;28;20417;-79
2021/06/21 06:31:49;;;;;;;3.37;1.10;;;24.40;99.90;;;;;;5035097;28;20214;-78
2021/06/21 06:34:16;;;;;;;6.00;1.37;;;24.30;99.90;;;;;;5034078;28;20669;-78
2021/06/21 06:36:41;;;;;;;10.27;1.20;;;24.40;99.90;;;;;;5037817;28;20265;-79
2021/06/21 06:39:08;;;;;;;5.17;1.80;;;24.60;99.90;;;;;;5036366;28;20495;-79
2021/06/21 06:41:35;;;;;;;4.00;1.33;;;24.80;99.90;;;;;;5035859;28;20642;-79
2021/06/21 06:44:01;;;;;;;5.00;1.50;;;25.10;99.90;;;;;;5035330;28;20808;-78
2021/06/21 06:46:27;;;;;;;3.20;1.40;;;25.30;99.90;;;;;;5035171;28;20491;-79
2021/06/21 06:48:52;;;;;;;2.80;0.70;;;25.50;99.90;;;;;;5018546;28;20559;-80
2021/06/21 06:51:18;;;;;;;5.70;1.53;;;25.80;99.90;;;;;;5036982;28;20198;-79
2021/06/21 06:53:54;;;;;;;2.73;1.30;;;26.00;99.90;;;;;;5036123;28;20189;-79
2021/06/21 06:59:04;;;;;;;2.87;1.80;;;26.50;99.90;;;;;;5035164;28;20435;-79
2021/06/21 07:01:29;;;;;;;6.77;1.50;;;26.40;99.90;;;;;;5033938;28;20494;-78
2021/06/21 07:03:55;;;;;;;7.03;1.27;;;26.40;99.90;;;;;;5034798;28;20666;-79
2021/06/21 07:06:21;;;;;;;14.53;1.30;;;26.40;99.90;;;;;;5034431;28;20670;-79
2021/06/21 07:08:46;;;;;;;8.20;1.60;;;26.50;99.90;;;;;;5032644;28;20419;-78
2021/06/21 07:11:13;;;;;;;7.73;1.13;;;26.60;99.90;;;;;;5032740;28;20574;-78
2021/06/21 07:13:39;;;;;;;4.43;1.10;;;26.70;99.90;;;;;;5032395;28;20205;-78
2021/06/21 07:16:05;;;;;;;5.80;1.10;;;26.80;99.90;;;;;;5034833;28;20424;-79
2021/06/21 07:18:30;;;;;;;6.73;1.20;;;26.90;99.90;;;;;;5036591;28;20189;-78
2021/06/21 07:20:56;;;;;;;11.20;1.00;;;27.00;99.90;;;;;;5037812;28;20432;-79
2021/06/21 07:23:22;;;;;;;5.83;1.50;;;27.00;99.90;;;;;;5018246;28;20182;-79
2021/06/21 07:25:48;;;;;;;3.27;1.20;;;27.00;99.90;;;;;;5035791;28;20206;-79
2021/06/21 07:28:15;;;;;;;2.20;1.10;;;26.80;99.90;;;;;;5035182;28;20178;-79
2021/06/21 07:30:42;;;;;;;4.67;1.23;;;26.70;99.90;;;;;;5016854;28;20185;-78
2021/06/21 07:33:08;;;;;;;6.43;0.90;;;26.80;99.90;;;;;;5030967;28;20417;-78
2021/06/21 07:35:33;;;;;;;2.70;0.80;;;26.90;99.90;;;;;;5031254;28;20431;-77
2021/06/21 07:37:59;;;;;;;2.60;1.00;;;27.00;99.90;;;;;;5031358;28;20186;-78
2021/06/21 07:40:24;;;;;;;8.63;1.23;;;27.00;99.90;;;;;;5031325;28;20190;-78
2021/06/21 07:42:51;;;;;;;4.73;1.37;;;27.30;99.90;;;;;;5031516;28;20228;-78
2021/06/21 07:45:17;;;;;;;5.77;1.90;;;27.30;99.90;;;;;;5031353;28;20221;-78
2021/06/21 07:47:42;;;;;;;4.23;0.80;;;27.40;99.90;;;;;;5031626;28;20548;-78
2021/06/21 07:50:08;;;;;;;5.57;1.23;;;27.70;99.90;;;;;;5031542;28;20937;-78
2021/06/21 07:52:34;;;;;;;3.17;1.20;;;27.30;99.90;;;;;;5030936;28;20232;-78
2021/06/21 07:54:59;;;;;;;4.40;1.10;;;27.30;99.90;;;;;;5031788;28;20452;-78
2021/06/21 07:57:28;;;;;;;3.50;1.03;;;27.30;99.90;;;;;;5031430;28;20177;-77
2021/06/21 07:59:55;;;;;;;8.13;1.17;;;27.40;99.90;;;;;;5031277;28;20224;-79
2021/06/21 08:02:20;;;;;;;5.50;1.43;;;27.40;99.90;;;;;;5031965;28;20428;-77
2021/06/21 08:04:47;;;;;;;3.20;0.80;;;27.00;99.90;;;;;;5031955;28;20500;-78
2021/06/21 08:07:14;;;;;;;5.90;1.20;;;27.10;99.90;;;;;;5031674;28;20166;-78
2021/06/21 08:09:40;;;;;;;3.57;1.10;;;27.40;99.90;;;;;;5033511;28;20424;-79
2021/06/21 08:12:06;;;;;;;7.37;1.10;;;27.70;99.90;;;;;;5016126;28;20444;-79
2021/06/21 08:14:32;;;;;;;2.80;1.10;;;27.40;99.90;;;;;;5021748;28;20480;-78
2021/06/21 08:16:58;;;;;;;1.63;1.03;;;27.60;99.90;;;;;;5019782;28;20463;-79
2021/06/21 08:19:23;;;;;;;3.10;1.17;;;27.90;99.90;;;;;;5014481;28;20188;-78
2021/06/21 08:21:49;;;;;;;5.83;1.10;;;27.60;99.90;;;;;;5011495;28;20234;-79
2021/06/21 08:24:14;;;;;;;4.37;1.10;;;28.00;99.90;;;;;;5010907;28;20697;-79
2021/06/21 08:26:40;;;;;;;2.30;1.00;;;28.10;99.90;;;;;;5012031;28;20304;-79
2021/06/21 08:29:06;;;;;;;3.80;0.90;;;28.20;99.90;;;;;;5011519;28;20179;-78
2021/06/21 08:31:31;;;;;;;2.73;1.30;;;27.80;99.90;;;;;;5011466;28;20214;-78
2021/06/21 08:33:57;;;;;;;2.33;1.03;;;27.40;99.90;;;;;;4993894;28;20222;-78
2021/06/21 08:36:22;;;;;;;5.17;1.40;;;27.50;99.90;;;;;;5018844;28;20213;-78
2021/06/21 08:38:48;;;;;;;3.30;1.00;;;27.90;99.90;;;;;;5034256;28;20621;-79
2021/06/21 08:41:14;;;;;;;5.47;1.60;;;28.40;99.90;;;;;;5034010;28;20572;-79
2021/06/21 08:43:40;;;;;;;2.30;1.00;;;28.50;99.90;;;;;;5034457;28;20209;-78
2021/06/21 08:46:06;;;;;;;3.23;0.93;;;28.60;99.90;;;;;;5034609;28;20268;-78
2021/06/21 08:48:33;;;;;;;3.83;1.00;;;28.60;99.90;;;;;;5034513;28;20417;-79
2021/06/21 08:51:00;;;;;;;7.23;1.13;;;28.90;99.90;;;;;;5034541;28;20198;-78
2021/06/21 08:53:25;;;;;;;6.63;1.03;;;29.20;99.90;;;;;;5034251;28;20446;-79
2021/06/21 08:55:51;;;;;;;4.97;1.30;;;29.60;99.90;;;;;;5034437;28;20496;-79
2021/06/21 08:58:17;;;;;;;4.77;1.20;;;29.70;99.90;;;;;;5016811;28;20609;-78
2021/06/21 09:00:42;;;;;;;2.40;1.40;;;29.90;99.90;;;;;;5034668;28;20693;-78
2021/06/21 09:03:08;;;;;;;6.80;1.50;;;30.00;99.90;;;;;;5034476;28;20182;-79
2021/06/21 09:05:35;;;;;;;3.17;1.20;;;30.30;99.90;;;;;;5034046;28;20253;-78
2021/06/21 09:08:08;;;;;;;5.50;1.40;;;30.60;99.90;;;;;;5034207;28;20174;-79
2021/06/21 09:10:36;;;;;;;4.07;1.30;;;30.70;99.90;;;;;;5034661;28;20420;-79
2021/06/21 09:13:04;;;;;;;1.80;0.90;;;30.00;99.90;;;;;;5033510;28;20515;-78
2021/06/21 09:15:32;;;;;;;4.17;0.90;;;29.60;99.90;;;;;;5016184;28;20506;-79
2021/06/21 09:17:58;;;;;;;4.30;1.27;;;29.80;99.90;;;;;;5033740;28;20431;-78
2021/06/21 09:20:23;;;;;;;2.50;1.30;;;29.50;99.90;;;;;;5033636;28;20412;-78
2021/06/21 09:22:56;;;;;;;1.13;0.90;;;29.20;99.90;;;;;;5033292;28;20209;-79
2021/06/21 09:25:24;;;;;;;2.60;0.90;;;29.20;99.90;;;;;;5033250;28;20201;-79
2021/06/21 09:28:08;;;;;;;3.57;1.40;;;29.60;99.90;;;;;;5033581;28;20417;-78
2021/06/21 09:30:48;;;;;;;1.20;0.97;;;29.80;99.90;;;;;;5033669;28;20420;-79
2021/06/21 09:33:29;;;;;;;2.00;1.30;;;29.80;99.90;;;;;;5033283;28;20436;-78
2021/06/21 09:35:54;;;;;;;2.67;1.47;;;29.80;99.90;;;;;;5033494;28;20427;-78
2021/06/21 09:38:20;;;;;;;3.33;1.10;;;30.20;99.90;;;;;;5034212;28;20421;-78
2021/06/21 09:40:55;;;;;;;13.67;1.57;;;30.60;99.90;;;;;;5033235;28;20186;-78
2021/06/21 09:43:28;;;;;;;4.60;1.10;;;30.10;99.90;;;;;;5029190;28;20220;-78
2021/06/21 09:46:13;;;;;;;2.80;0.97;;;29.20;99.90;;;;;;5032755;28;20864;-78
2021/06/21 09:48:41;;;;;;;3.57;1.10;;;28.90;99.90;;;;;;5032497;28;20995;-78
2021/06/21 09:51:31;;;;;;;2.37;1.20;;;29.20;99.90;;;;;;5032689;28;20494;-78
2021/06/21 09:54:10;;;;;;;3.10;1.00;;;29.10;99.90;;;;;;5032789;28;20791;-78
2021/06/21 09:56:47;;;;;;;3.77;1.00;;;29.00;99.90;;;;;;5032735;28;20568;-77
2021/06/21 09:59:31;;;;;;;3.73;1.47;;;29.80;99.90;;;;;;5032477;28;20735;-78
2021/06/21 10:02:17;;;;;;;5.90;1.23;;;29.60;99.90;;;;;;5032667;28;21004;-78
2021/06/21 10:04:45;;;;;;;4.87;1.03;;;29.50;99.90;;;;;;5032594;28;20416;-78
2021/06/21 10:07:36;;;;;;;2.70;0.93;;;30.10;99.90;;;;;;5032662;28;20835;-78
2021/06/21 10:10:08;;;;;;;3.80;1.27;;;29.30;99.90;;;;;;5032504;28;20412;-79
2021/06/21 10:12:35;;;;;;;6.70;1.67;;;29.00;99.90;;;;;;5032169;28;20435;-79
2021/06/21 10:15:00;;;;;;;4.10;1.57;;;28.70;99.90;;;;;;5032343;28;20436;-78
2021/06/21 10:17:27;;;;;;;3.37;1.20;;;28.80;99.90;;;;;;5032320;28;20409;-77
2021/06/21 10:19:53;;;;;;;2.67;0.97;;;29.60;99.90;;;;;;5032458;28;20249;-77
2021/06/21 10:22:21;;;;;;;1.97;1.20;;;30.40;99.90;;;;;;5032312;28;20440;-77
2021/06/21 10:24:51;;;;;;;6.57;1.60;;;31.30;99.90;;;;;;5032414;28;20419;-76
2021/06/21 10:27:19;;;;;;;2.10;0.90;;;30.50;99.90;;;;;;5032122;28;20420;-78
2021/06/21 10:29:46;;;;;;;4.23;1.73;;;30.70;99.90;;;;;;5032181;28;20487;-78
2021/06/21 10:32:11;;;;;;;1.63;1.43;;;30.70;99.90;;;;;;5031792;28;20479;-77
2021/06/21 10:34:39;;;;;;;3.90;1.10;;;30.00;99.90;;;;;;5031805;28;20432;-78
2021/06/21 10:37:15;;;;;;;2.80;1.27;;;29.70;99.90;;;;;;5032396;28;20182;-77
2021/06/21 10:39:49;;;;;;;1.30;1.00;;;30.10;99.90;;;;;;5014566;28;20713;-77
2021/06/21 10:42:21;;;;;;;3.37;1.30;;;30.70;99.90;;;;;;5031528;28;20459;-77
2021/06/21 10:45:00;;;;;;;1.40;1.10;;;30.80;99.90;;;;;;5032025;28;20407;-77
2021/06/21 10:47:38;;;;;;;3.13;1.10;;;31.20;99.90;;;;;;5032062;28;20951;-77
2021/06/21 10:50:07;;;;;;;4.50;1.43;;;31.50;99.90;;;;;;5032077;28;20410;-78
2021/06/21 10:52:33;;;;;;;3.00;0.90;;;32.10;99.90;;;;;;5031234;28;20952;-77
2021/06/21 10:55:27;;;;;;;6.17;1.13;;;32.10;99.90;;;;;;5031088;28;20412;-77
2021/06/21 10:57:54;;;;;;;1.57;0.87;;;32.10;99.90;;;;;;5032033;28;20170;-77
2021/06/21 11:00:21;;;;;;;2.90;1.00;;;32.10;99.90;;;;;;5030748;28;20950;-76
2021/06/21 11:02:47;;;;;;;1.63;1.17;;;32.30;99.90;;;;;;5031360;28;20416;-77
2021/06/21 11:05:39;;;;;;;1.77;1.67;;;32.60;99.90;;;;;;5031409;28;20505;-78
2021/06/21 11:08:23;;;;;;;1.93;1.10;;;32.10;99.90;;;;;;5031469;28;20905;-78
2021/06/21 11:10:51;;;;;;;2.47;0.83;;;31.10;99.90;;;;;;5031496;28;20543;-78
2021/06/21 11:13:37;;;;;;;2.67;1.00;;;30.70;99.90;;;;;;5031246;28;20401;-75
2021/06/21 11:16:21;;;;;;;1.73;1.10;;;30.60;99.90;;;;;;5031347;28;20441;-77
2021/06/21 11:18:56;;;;;;;2.37;1.40;;;30.70;99.90;;;;;;5031606;28;20419;-77
2021/06/21 11:21:23;;;;;;;5.00;1.13;;;31.40;99.90;;;;;;5031225;28;20431;-77
2021/06/21 11:23:51;;;;;;;2.33;1.00;;;31.80;99.90;;;;;;5031129;28;20409;-77
2021/06/21 11:26:17;;;;;;;3.47;1.10;;;31.60;99.90;;;;;;5031276;28;21089;-77
2021/06/21 11:28:43;;;;;;;6.10;1.87;;;31.10;99.90;;;;;;5031446;28;20492;-76
2021/06/21 11:31:18;;;;;;;2.90;1.37;;;30.70;99.90;;;;;;5031019;28;20581;-76
2021/06/21 11:34:01;;;;;;;2.00;1.60;;;30.60;99.90;;;;;;5031274;28;20439;-78
2021/06/21 11:36:49;;;;;;;3.27;0.90;;;30.50;99.90;;;;;;5031226;28;20443;-76
2021/06/21 11:39:29;;;;;;;1.63;1.00;;;29.90;99.90;;;;;;5017928;28;20482;-77
2021/06/21 11:42:03;;;;;;;4.03;1.00;;;30.00;99.90;;;;;;5031141;28;20515;-77
2021/06/21 11:44:37;;;;;;;2.93;1.50;;;30.00;99.90;;;;;;5030884;28;20425;-76
2021/06/21 11:47:20;;;;;;;3.83;1.30;;;30.10;99.90;;;;;;5031167;28;20458;-77
2021/06/21 11:49:47;;;;;;;3.50;1.30;;;30.60;99.90;;;;;;5031166;28;20765;-77
2021/06/21 11:52:20;;;;;;;4.10;1.70;;;30.80;99.90;;;;;;5030756;28;20431;-76
2021/06/21 11:54:48;;;;;;;2.30;1.20;;;30.20;99.90;;;;;;5030557;28;20448;-77
2021/06/21 11:57:16;;;;;;;4.70;1.07;;;30.50;99.90;;;;;;5030029;28;20504;-77
2021/06/21 11:59:43;;;;;;;2.70;1.47;;;30.50;99.90;;;;;;5029759;28;20423;-77
2021/06/21 12:02:25;;;;;;;2.20;1.00;;;30.50;99.90;;;;;;5031850;28;20866;-77
2021/06/21 12:04:57;;;;;;;6.53;1.40;;;30.80;99.90;;;;;;5013639;28;20460;-77
2021/06/21 12:07:42;;;;;;;1.77;1.10;;;30.80;99.90;;;;;;5030800;28;20933;-77
2021/06/21 12:10:19;;;;;;;6.40;1.40;;;31.20;99.90;;;;;;5031091;28;20443;-77
2021/06/21 12:12:47;;;;;;;3.80;1.30;;;31.30;99.90;;;;;;5016659;28;20468;-77
2021/06/21 12:15:25;;;;;;;3.47;1.37;;;31.20;99.90;;;;;;5034403;28;20424;-77
2021/06/21 12:17:50;;;;;;;1.87;1.23;;;31.30;99.90;;;;;;5034027;28;20404;-76
2021/06/21 12:20:18;;;;;;;3.20;1.20;;;31.50;99.90;;;;;;5034535;28;20404;-77
2021/06/21 12:22:58;;;;;;;1.47;1.10;;;31.60;99.90;;;;;;5016597;28;20222;-77
2021/06/21 12:25:33;;;;;;;3.33;1.20;;;31.70;99.90;;;;;;5034552;28;20458;-77
2021/06/21 12:28:23;;;;;;;2.20;1.40;;;31.40;99.90;;;;;;5034439;28;20420;-77
2021/06/21 12:30:55;;;;;;;6.40;1.40;;;31.20;99.90;;;;;;5034166;28;20412;-77
2021/06/21 12:33:25;;;;;;;5.80;1.37;;;30.90;99.90;;;;;;5032801;28;20416;-75
2021/06/21 12:36:26;;;;;;;6.23;1.80;;;30.30;99.90;;;;;;5033486;28;20423;-74
2021/06/21 12:38:52;;;;;;;3.07;1.30;;;29.80;99.90;;;;;;5033140;28;20419;-75
2021/06/21 12:41:27;;;;;;;2.03;1.47;;;29.60;99.90;;;;;;5032730;28;20436;-74
2021/06/21 12:43:55;;;;;;;2.60;0.97;;;29.40;99.90;;;;;;5032793;28;20416;-74
2021/06/21 12:46:23;;;;;;;2.80;1.50;;;29.20;99.90;;;;;;5032759;28;20447;-75
2021/06/21 12:48:49;;;;;;;4.20;1.67;;;29.00;99.90;;;;;;5033268;28;20429;-74
2021/06/21 12:51:18;;;;;;;4.30;1.23;;;28.70;99.90;;;;;;5032862;28;20483;-75
2021/06/21 12:53:46;;;;;;;3.10;1.47;;;28.70;99.90;;;;;;5033390;28;20486;-75
2021/06/21 12:56:24;;;;;;;4.30;1.60;;;28.80;99.90;;;;;;5034119;28;20409;-75
2021/06/21 12:58:50;;;;;;;2.40;1.47;;;28.80;99.90;;;;;;5034012;28;20475;-74
2021/06/21 13:01:25;;;;;;;1.90;1.10;;;28.90;99.90;;;;;;5033217;28;20435;-73
2021/06/21 13:03:51;;;;;;;3.40;1.30;;;29.10;99.90;;;;;;5033298;28;20439;-73
2021/06/21 13:06:37;;;;;;;2.33;1.07;;;29.30;99.90;;;;;;5032506;28;20456;-76
2021/06/21 13:09:13;;;;;;;1.70;1.60;;;29.30;99.90;;;;;;5033087;28;20472;-73
2021/06/21 13:11:49;;;;;;;2.90;1.30;;;29.50;99.90;;;;;;5032664;28;20443;-74
2021/06/21 13:14:14;;;;;;;3.00;1.57;;;29.60;99.90;;;;;;5014516;28;20753;-74
2021/06/21 13:16:40;;;;;;;3.00;1.60;;;29.50;99.90;;;;;;5032292;28;20428;-75
2021/06/21 13:19:17;;;;;;;2.37;1.10;;;29.30;99.90;;;;;;5032545;28;20659;-74
2021/06/21 13:21:51;;;;;;;5.80;1.17;;;29.00;99.90;;;;;;5032102;28;20228;-74
2021/06/21 13:24:34;;;;;;;4.20;1.70;;;28.90;99.90;;;;;;5031310;28;20485;-74
2021/06/21 13:27:00;;;;;;;2.40;2.20;;;29.00;99.90;;;;;;5032234;28;20456;-74
2021/06/21 13:29:28;;;;;;;3.67;1.60;;;28.90;99.90;;;;;;5032044;28;20902;-74
2021/06/21 13:31:56;;;;;;;4.70;1.67;;;28.70;99.90;;;;;;5002591;28;45166;-74
2021/06/21 13:34:46;;;;;;;3.67;1.20;;;28.50;99.90;;;;;;5026874;28;20419;-74
2021/06/21 13:37:20;;;;;;;5.17;2.10;;;28.60;99.90;;;;;;5033028;28;21098;-74
2021/06/21 13:40:02;;;;;;;3.00;1.33;;;28.50;99.90;;;;;;5033334;28;20808;-74
2021/06/21 13:42:36;;;;;;;2.60;1.10;;;28.40;99.90;;;;;;5032928;28;20436;-74
2021/06/21 13:45:05;;;;;;;4.10;1.40;;;28.50;99.90;;;;;;5031916;28;20405;-74
2021/06/21 13:47:36;;;;;;;2.13;1.20;;;28.60;99.90;;;;;;5032174;28;20421;-74
2021/06/21 13:50:05;;;;;;;5.80;1.73;;;28.60;99.90;;;;;;5033235;28;20416;-74
2021/06/21 13:52:44;;;;;;;5.30;2.23;;;28.40;99.90;;;;;;5032756;28;20425;-73
2021/06/21 13:55:13;;;;;;;1.93;1.20;;;28.40;99.90;;;;;;5033012;28;20881;-74
2021/06/21 13:57:47;;;;;;;3.13;1.27;;;28.40;99.90;;;;;;5032720;28;20413;-74
2021/06/21 14:00:34;;;;;;;3.03;1.60;;;28.30;99.90;;;;;;5032947;28;20777;-74
2021/06/21 14:03:01;;;;;;;2.70;1.40;;;28.40;99.90;;;;;;5033029;28;20483;-74
2021/06/21 14:05:27;;;;;;;2.57;1.50;;;28.50;99.90;;;;;;5032581;28;20459;-73
2021/06/21 14:07:54;;;;;;;4.30;1.30;;;28.60;99.90;;;;;;5032648;28;20424;-74
2021/06/21 14:10:21;;;;;;;8.17;1.20;;;28.60;99.90;;;;;;5032516;28;20439;-74
2021/06/21 14:12:49;;;;;;;3.83;1.30;;;28.60;99.90;;;;;;5032130;28;20439;-74
2021/06/21 14:15:14;;;;;;;3.17;1.20;;;28.50;99.90;;;;;;5032591;28;20420;-74
2021/06/21 14:17:40;;;;;;;3.77;1.17;;;28.30;99.90;;;;;;5032292;28;20774;-74
2021/06/21 14:20:06;;;;;;;3.43;1.60;;;28.10;99.90;;;;;;5032621;28;20178;-74
2021/06/21 14:22:33;;;;;;;1.30;1.10;;;27.90;99.90;;;;;;5032328;28;20277;-74
2021/06/21 14:24:59;;;;;;;4.30;1.27;;;27.80;99.90;;;;;;5032098;28;20412;-74
2021/06/21 14:27:24;;;;;;;3.40;1.10;;;27.70;99.90;;;;;;5032073;28;20882;-74
2021/06/21 14:29:50;;;;;;;2.47;1.27;;;27.70;99.90;;;;;;5032151;28;20574;-74
2021/06/21 14:32:15;;;;;;;1.20;1.07;;;27.70;99.90;;;;;;5032087;28;20210;-74
2021/06/21 14:34:41;;;;;;;1.93;1.00;;;27.60;99.90;;;;;;5030952;28;20186;-74
2021/06/21 14:37:07;;;;;;;3.53;1.20;;;27.60;99.90;;;;;;5032038;28;20174;-74
2021/06/21 14:39:32;;;;;;;3.33;1.50;;;27.70;99.90;;;;;;5031684;28;20244;-74
2021/06/21 14:41:58;;;;;;;2.57;1.10;;;27.80;99.90;;;;;;5031602;28;20687;-74
2021/06/21 14:44:24;;;;;;;2.50;1.10;;;27.90;99.90;;;;;;5031600;28;20178;-74
2021/06/21 14:46:50;;;;;;;0.90;0.73;;;28.00;99.90;;;;;;5031558;28;20228;-73
2021/06/21 14:49:16;;;;;;;1.93;1.20;;;28.10;99.90;;;;;;5031699;28;20201;-74
2021/06/21 14:51:41;;;;;;;3.40;1.33;;;28.20;99.90;;;;;;5031510;28;20201;-74
2021/06/21 14:54:07;;;;;;;1.53;0.87;;;28.10;99.90;;;;;;5031482;28;20412;-74
2021/06/21 14:56:33;;;;;;;2.27;1.43;;;28.20;99.90;;;;;;5031615;28;20174;-74
2021/06/21 14:59:00;;;;;;;1.47;1.27;;;28.20;99.90;;;;;;5031595;28;20181;-74
2021/06/21 15:01:26;;;;;;;3.37;1.67;;;28.20;99.90;;;;;;5031544;28;20435;-73
2021/06/21 15:03:51;;;;;;;2.77;1.03;;;28.20;99.90;;;;;;5031572;28;20774;-73
2021/06/21 15:06:20;;;;;;;1.27;1.10;;;28.20;99.90;;;;;;5031469;28;20539;-73
2021/06/21 15:08:47;;;;;;;4.20;1.33;;;28.00;99.90;;;;;;5031276;28;20252;-73
2021/06/21 15:11:13;;;;;;;2.90;1.00;;;27.80;99.90;;;;;;5029937;28;20464;-73
2021/06/21 15:13:39;;;;;;;2.40;0.97;;;28.10;99.90;;;;;;5031049;28;20464;-73
2021/06/21 15:16:06;;;;;;;1.20;1.10;;;28.10;99.90;;;;;;5031422;28;20405;-73
2021/06/21 15:18:32;;;;;;;3.20;1.30;;;28.20;99.90;;;;;;5031118;28;20412;-74
2021/06/21 15:20:58;;;;;;;12.73;2.07;;;28.00;99.90;;;;;;5031349;28;20432;-73
2021/06/21 15:23:23;;;;;;;3.90;1.23;;;27.80;99.90;;;;;;5030946;28;20459;-73
2021/06/21 15:25:49;;;;;;;1.63;1.20;;;27.70;99.90;;;;;;5031211;28;20301;-74
2021/06/21 15:28:15;;;;;;;1.87;1.40;;;27.50;99.90;;;;;;5031038;28;20181;-74
2021/06/21 15:30:41;;;;;;;2.73;1.20;;;27.60;99.90;;;;;;5030892;28;20783;-73
2021/06/21 15:33:07;;;;;;;9.03;2.00;;;27.50;99.90;;;;;;5030890;28;20174;-74
2021/06/21 15:35:33;;;;;;;7.10;1.73;;;27.40;99.90;;;;;;5030961;28;20423;-74
2021/06/21 15:37:59;;;;;;;8.10;1.67;;;27.40;99.90;;;;;;5030924;28;20409;-73
2021/06/21 15:40:27;;;;;;;4.23;0.87;;;27.30;99.90;;;;;;5031367;28;20660;-73
2021/06/21 15:42:55;;;;;;;14.33;2.10;;;27.50;99.90;;;;;;5030613;28;20429;-73
2021/06/21 15:45:23;;;;;;;2.10;1.20;;;27.50;99.90;;;;;;5030929;28;20929;-73
2021/06/21 15:47:50;;;;;;;2.60;1.10;;;27.30;99.90;;;;;;5034660;28;20424;-73
2021/06/21 15:50:17;;;;;;;2.07;1.40;;;27.10;99.90;;;;;;5035187;28;20412;-73
2021/06/21 15:52:44;;;;;;;3.40;1.43;;;27.00;99.90;;;;;;5034742;28;20807;-71
2021/06/21 15:55:14;;;;;;;3.07;1.30;;;26.90;99.90;;;;;;5034937;28;20413;-74
2021/06/21 15:57:47;;;;;;;7.63;1.87;;;26.80;99.90;;;;;;5034804;28;20412;-73
2021/06/21 16:00:15;;;;;;;1.37;1.20;;;26.70;99.90;;;;;;5034843;28;20421;-74
2021/06/21 16:02:41;;;;;;;1.93;1.00;;;26.60;99.90;;;;;;5034383;28;20436;-74
2021/06/21 16:05:07;;;;;;;1.40;1.20;;;26.50;99.90;;;;;;5034515;28;20404;-73
2021/06/21 16:07:33;;;;;;;5.77;1.70;;;26.50;99.90;;;;;;5034616;28;20415;-74
2021/06/21 16:09:59;;;;;;;1.10;1.00;;;26.40;99.90;;;;;;5034597;28;20432;-74
2021/06/21 16:12:28;;;;;;;3.30;1.77;;;26.40;99.90;;;;;;5034672;28;20479;-74
2021/06/21 16:14:53;;;;;;;6.33;1.57;;;26.40;99.90;;;;;;5034706;28;20401;-75
2021/06/21 16:17:20;;;;;;;1.83;1.20;;;26.30;99.90;;;;;;5034449;28;20909;-73
2021/06/21 16:19:46;;;;;;;8.03;1.70;;;26.30;99.90;;;;;;5034385;28;20167;-74
2021/06/21 16:22:12;;;;;;;6.93;1.40;;;26.20;99.90;;;;;;5016609;28;20667;-74
2021/06/21 16:24:38;;;;;;;2.30;1.70;;;26.20;99.90;;;;;;5034132;28;20523;-74
2021/06/21 16:27:05;;;;;;;1.93;1.60;;;26.20;99.90;;;;;;5030882;28;20209;-73
2021/06/21 16:29:31;;;;;;;1.60;1.50;;;26.10;99.90;;;;;;5034160;28;20174;-74
2021/06/21 16:31:57;;;;;;;1.27;1.17;;;26.00;99.90;;;;;;5034035;28;20444;-73
2021/06/21 16:34:22;;;;;;;3.37;3.00;;;26.00;99.90;;;;;;5034012;28;20170;-74
2021/06/21 16:36:48;;;;;;;2.23;1.50;;;26.00;99.90;;;;;;5034087;28;20174;-74
2021/06/21 16:39:13;;;;;;;2.40;1.30;;;25.90;99.90;;;;;;5034024;28;20178;-73
2021/06/21 16:41:39;;;;;;;2.17;1.50;;;25.80;99.90;;;;;;5034090;28;20198;-74
2021/06/21 16:44:04;;;;;;;1.93;1.20;;;25.70;99.90;;;;;;5033431;28;20176;-73
2021/06/21 16:46:30;;;;;;;1.57;1.47;;;25.70;99.90;;;;;;5033795;28;20260;-73
2021/06/21 16:48:55;;;;;;;4.87;1.30;;;25.70;99.90;;;;;;5034009;28;20170;-74
2021/06/21 16:51:21;;;;;;;3.07;1.20;;;25.60;99.90;;;;;;5033964;28;20525;-73
2021/06/21 16:53:46;;;;;;;2.03;1.70;;;25.60;99.90;;;;;;5033515;28;20178;-73
2021/06/21 16:56:12;;;;;;;3.93;1.50;;;25.60;99.90;;;;;;5033798;28;20182;-75
2021/06/21 16:58:37;;;;;;;4.57;1.37;;;25.70;99.90;;;;;;5032443;28;20178;-74
2021/06/21 17:01:03;;;;;;;1.80;1.47;;;25.70;99.90;;;;;;5033902;28;20198;-74
2021/06/21 17:03:29;;;;;;;1.30;1.20;;;25.80;99.90;;;;;;5033713;28;20610;-74
2021/06/21 17:05:55;;;;;;;0.97;0.97;;;25.80;99.90;;;;;;5039450;28;20225;-74
2021/06/21 17:08:20;;;;;;;2.30;2.03;;;25.80;99.90;;;;;;5041306;28;20424;-74
2021/06/21 17:10:46;;;;;;;4.80;3.47;;;25.70;99.90;;;;;;5033556;28;20170;-74
2021/06/21 17:13:12;;;;;;;3.80;2.00;;;25.70;99.90;;;;;;5033196;28;20177;-75
2021/06/21 17:15:38;;;;;;;3.40;1.73;;;25.60;99.90;;;;;;5033551;28;20182;-74
2021/06/21 17:18:04;;;;;;;1.83;1.30;;;25.60;99.90;;;;;;5033733;28;20424;-73
2021/06/21 17:20:30;;;;;;;1.73;1.23;;;25.50;99.90;;;;;;5033468;28;20189;-72
2021/06/21 17:22:58;;;;;;;2.17;1.10;;;25.40;99.90;;;;;;5033493;28;20436;-72
2021/06/21 17:25:24;;;;;;;2.20;1.73;;;25.40;99.90;;;;;;5033605;28;20174;-73
2021/06/21 17:27:51;;;;;;;3.80;1.60;;;25.40;99.90;;;;;;5033389;28;20412;-72